Rocky Mountain Metropolitan Airport
KBJC : now visible

Airfield :











YOU CAN JOIN US ON...

 
LOGIN :

Register | Disclaimer

   EN    FR    IT 

 









Legend :    VFR   Marginal VFR   IFR   Intensive IFR   Very Intensive IFR
Visi :
Ceiling :
>= 8 km
>= 3000ft
5 to 8 km
1000 to 3000 ft
1500m to 5 km
500 to 1000 ft
800 to 1500m
200 to 500 ft
< 800m
< 200 ft
Symbols :   Thunderstorms  Fog  Heavy snow  Heavy precipitations  Wind > 20 kt







- Airport Elevation : 5673 ft


KBJC - Rocky Mountain Metropolitan

CURRENT METAR :
  • 260512Z AUTO 27009KT 10SM CLR 28/00 A2996 RMK AO2

EXPIRED METARs :
  • 260454Z AUTO 27009G15KT 10SM CLR 27/M01 A2996 RMK AO2
  • 260430Z AUTO 27010KT 10SM CLR 28/00 A2996 RMK AO2
  • 260412Z AUTO 26008KT 10SM CLR 28/00 A2996 RMK AO2
  • 260345Z 27012KT 40SM FEW120 29/M01 A2995
  • 260245Z 26010KT 40SM FEW120 29/M01 A2995

TAF KBJC
Valid from the 26 at 04:00 until the 27 at 00:00 UTC


260424Z 2604/2624 26008KT P6SM FEW120
FM260900 32014KT P6SM SKC
FM261100 01012G20KT P6SM SCT015
FM261500 03010KT P6SM SCT025
FM262000 05012KT P6SM SCT045
No reported NOTAMs for that airfield.



MET'MAP, your aeronautical weather chart ! - Copyright ORBIFLY December 2007 - Disclaimer

ORBIFLY MET'MAP TEAM :

Programming & Development : Alexandra Zaïnal
Concept & Development : Baudouin d'Aumeries
Co-Development & Prog : Marc-Olivier Méhu
Technical & hardware support : Manuel Goepfert

Contact : metmap@orbifly.com




SOURCES & CREDITS :

   NOAA       Earth
Advisory